createdAt,value
2023-03-06T00:01:48.294Z,18.50
2023-03-06T00:03:50.105Z,18.40
2023-03-06T00:05:51.964Z,18.50
2023-03-06T00:07:53.755Z,18.40
2023-03-06T00:09:55.574Z,18.40
2023-03-06T00:11:57.321Z,18.50
2023-03-06T00:13:59.093Z,18.40
2023-03-06T00:16:01.020Z,18.40
2023-03-06T00:18:03.937Z,18.40
2023-03-06T00:20:06.380Z,18.40
2023-03-06T00:22:10.003Z,18.40
2023-03-06T00:24:11.782Z,18.40
2023-03-06T00:26:13.507Z,18.40
2023-03-06T00:28:17.057Z,18.40
2023-03-06T00:30:21.197Z,18.30
2023-03-06T00:32:23.098Z,18.40
2023-03-06T00:34:24.898Z,18.30
2023-03-06T00:36:26.722Z,18.30
2023-03-06T00:38:28.473Z,18.30
2023-03-06T00:40:31.302Z,18.30
2023-03-06T00:42:34.551Z,18.30
2023-03-06T00:44:36.322Z,18.30
2023-03-06T00:46:38.134Z,18.30
2023-03-06T00:48:40.050Z,18.30
2023-03-06T00:50:41.778Z,18.30
2023-03-06T00:52:43.723Z,18.30
2023-03-06T00:54:45.498Z,18.30
2023-03-06T00:56:47.323Z,18.30
2023-03-06T00:58:49.125Z,18.20
2023-03-06T01:00:51.683Z,18.30
2023-03-06T01:02:53.480Z,18.30
2023-03-06T01:04:57.262Z,18.30
2023-03-06T01:06:59.107Z,18.20
2023-03-06T01:09:00.868Z,18.30
2023-03-06T01:11:02.646Z,18.20
2023-03-06T01:13:04.469Z,18.20
2023-03-06T01:15:07.051Z,18.20
2023-03-06T01:17:09.872Z,18.20
2023-03-06T01:19:11.959Z,18.20
2023-03-06T01:21:14.051Z,18.10
2023-03-06T01:23:15.850Z,18.10
2023-03-06T01:25:17.696Z,18.20
2023-03-06T01:27:19.484Z,18.10
2023-03-06T01:29:21.286Z,18.20
2023-03-06T01:31:23.514Z,18.20
2023-03-06T01:33:25.315Z,18.20
2023-03-06T01:35:27.132Z,18.20
2023-03-06T01:37:28.981Z,18.10
2023-03-06T01:39:31.119Z,18.10
2023-03-06T01:41:32.926Z,18.10
2023-03-06T01:43:35.687Z,18.10
2023-03-06T01:45:37.461Z,18.10
2023-03-06T01:47:39.280Z,18.10
2023-03-06T01:49:41.608Z,18.10
2023-03-06T01:51:49.466Z,18.10
2023-03-06T01:53:52.246Z,18.10
2023-03-06T01:55:54.398Z,18.10
2023-03-06T01:57:57.592Z,18.10
2023-03-06T02:00:02.628Z,18.10
2023-03-06T02:02:15.293Z,18.10
2023-03-06T02:04:18.013Z,18.10
2023-03-06T02:06:19.783Z,18.00
2023-03-06T02:08:22.783Z,18.00
2023-03-06T02:10:24.949Z,18.00
2023-03-06T02:12:27.784Z,18.00
2023-03-06T02:14:30.002Z,18.00
2023-03-06T02:16:32.882Z,18.00
2023-03-06T02:18:35.232Z,18.00
2023-03-06T02:20:39.492Z,18.00
2023-03-06T02:22:47.688Z,18.00
2023-03-06T02:25:02.602Z,18.00
2023-03-06T02:27:05.302Z,18.00
2023-03-06T02:29:08.128Z,18.00
2023-03-06T02:31:19.726Z,18.00
2023-03-06T02:33:23.555Z,18.00
2023-03-06T02:35:27.012Z,18.00
2023-03-06T02:37:28.836Z,17.90
2023-03-06T02:39:33.040Z,17.90
2023-03-06T02:41:34.812Z,18.00
2023-03-06T02:43:38.507Z,18.00
2023-03-06T02:45:47.190Z,18.00
2023-03-06T02:47:49.080Z,17.90
2023-03-06T02:49:50.903Z,18.00
2023-03-06T02:51:53.201Z,17.90
2023-03-06T02:53:54.990Z,17.90
2023-03-06T02:55:56.782Z,17.90
2023-03-06T02:57:58.621Z,17.90
2023-03-06T03:00:00.529Z,17.90
2023-03-06T03:02:02.369Z,18.00
2023-03-06T03:04:04.470Z,17.90
2023-03-06T03:06:07.616Z,17.90
2023-03-06T03:08:10.139Z,17.90
2023-03-06T03:10:12.624Z,17.90
2023-03-06T03:12:14.429Z,17.90
2023-03-06T03:14:41.337Z,17.90
2023-03-06T03:16:43.223Z,17.90
2023-03-06T03:18:44.989Z,17.90
2023-03-06T03:20:47.015Z,17.90
2023-03-06T03:22:49.850Z,17.90
2023-03-06T03:24:51.856Z,17.90
2023-03-06T03:26:53.641Z,17.90
2023-03-06T03:29:01.063Z,17.90
2023-03-06T03:31:06.893Z,17.90
2023-03-06T03:33:09.674Z,17.90
2023-03-06T03:35:12.632Z,17.90
2023-03-06T03:37:15.502Z,18.00
2023-03-06T03:39:18.252Z,17.90
2023-03-06T03:41:20.093Z,17.90
2023-03-06T03:43:21.980Z,17.90
2023-03-06T03:45:23.774Z,17.90
2023-03-06T03:47:25.970Z,17.90
2023-03-06T03:49:28.734Z,17.90
2023-03-06T03:51:30.948Z,17.90
2023-03-06T03:53:33.903Z,17.90
2023-03-06T03:55:35.987Z,17.90
2023-03-06T03:57:37.835Z,18.00
2023-03-06T03:59:39.644Z,17.90
2023-03-06T04:02:04.181Z,17.90
2023-03-06T04:04:09.243Z,17.90
2023-03-06T04:06:11.705Z,17.90
2023-03-06T04:08:14.447Z,17.90
2023-03-06T04:10:19.150Z,17.90
2023-03-06T04:12:21.649Z,17.90
2023-03-06T04:14:23.504Z,17.90
2023-03-06T04:16:25.391Z,17.80
2023-03-06T04:18:27.207Z,17.80
2023-03-06T04:20:32.472Z,17.70
2023-03-06T04:22:35.563Z,17.80
2023-03-06T04:24:37.485Z,17.80
2023-03-06T04:26:39.454Z,17.80
2023-03-06T04:28:41.344Z,17.80
2023-03-06T04:30:43.231Z,17.90
2023-03-06T04:32:45.147Z,17.90
2023-03-06T04:34:47.143Z,17.80
2023-03-06T04:36:48.963Z,17.80
2023-03-06T04:38:52.261Z,17.80
2023-03-06T04:40:54.314Z,17.80
2023-03-06T04:42:57.203Z,17.80
2023-03-06T04:44:59.002Z,17.80
2023-03-06T04:47:00.788Z,17.80
2023-03-06T04:49:02.540Z,17.80
2023-03-06T04:51:04.479Z,17.80
2023-03-06T04:53:06.323Z,17.80
2023-03-06T04:55:08.479Z,17.80
2023-03-06T04:57:10.459Z,17.80
2023-03-06T04:59:12.277Z,17.80
2023-03-06T05:01:14.090Z,17.80
2023-03-06T05:03:15.926Z,17.80
2023-03-06T05:05:18.317Z,17.80
2023-03-06T05:07:20.066Z,17.90
2023-03-06T05:09:21.834Z,17.80
2023-03-06T05:11:23.621Z,17.80
2023-03-06T05:13:26.022Z,17.80
2023-03-06T05:15:27.774Z,17.80
2023-03-06T05:17:29.565Z,17.80
2023-03-06T05:19:31.369Z,17.70
2023-03-06T05:21:33.158Z,17.70
2023-03-06T05:23:35.766Z,17.80
2023-03-06T05:25:40.595Z,17.80
2023-03-06T05:27:42.338Z,17.80
2023-03-06T05:29:44.183Z,17.80
2023-03-06T05:31:46.174Z,17.80
2023-03-06T05:33:48.014Z,17.80
2023-03-06T05:35:50.088Z,17.80
2023-03-06T05:37:51.910Z,17.70
2023-03-06T05:39:54.022Z,17.70
2023-03-06T05:41:55.804Z,17.70
2023-03-06T05:43:57.568Z,17.70
2023-03-06T05:46:02.771Z,17.70
2023-03-06T05:48:05.007Z,17.70
2023-03-06T05:50:06.893Z,17.70
2023-03-06T05:52:08.961Z,17.70
2023-03-06T05:54:10.709Z,17.70
2023-03-06T05:56:12.483Z,17.70
2023-03-06T05:58:14.191Z,17.70
2023-03-06T06:00:16.177Z,17.70
2023-03-06T06:02:19.598Z,17.70
2023-03-06T06:04:22.059Z,17.70
2023-03-06T06:06:23.763Z,17.70
2023-03-06T06:08:26.456Z,17.70
2023-03-06T06:10:28.230Z,17.70
2023-03-06T06:12:30.118Z,17.70
2023-03-06T06:14:33.306Z,17.70
2023-03-06T06:16:35.004Z,17.60
2023-03-06T06:18:39.285Z,17.70
2023-03-06T06:20:42.786Z,17.70
2023-03-06T06:22:44.562Z,17.70
2023-03-06T06:24:46.344Z,17.70
2023-03-06T06:26:50.134Z,17.70
2023-03-06T06:28:51.948Z,17.70
2023-03-06T06:30:53.733Z,17.70
2023-03-06T06:32:55.518Z,17.70
2023-03-06T06:34:57.339Z,17.70
2023-03-06T06:36:59.108Z,17.70
2023-03-06T06:39:00.900Z,17.70
2023-03-06T06:41:33.384Z,17.70
2023-03-06T06:43:25.191Z,17.70
2023-03-06T06:45:27.032Z,17.70
2023-03-06T06:47:28.940Z,17.70
2023-03-06T06:49:30.822Z,17.70
2023-03-06T06:51:35.626Z,17.70
2023-03-06T06:53:37.333Z,17.70
2023-03-06T06:55:39.129Z,17.60
2023-03-06T06:57:41.486Z,17.60
2023-03-06T06:59:43.338Z,17.60
2023-03-06T07:01:45.232Z,17.70
2023-03-06T07:03:47.046Z,17.70
2023-03-06T07:05:55.562Z,17.70
2023-03-06T07:07:57.387Z,17.70
2023-03-06T07:09:59.144Z,17.70
2023-03-06T07:12:01.010Z,17.80
2023-03-06T07:14:02.719Z,17.80
2023-03-06T07:16:04.746Z,17.80
2023-03-06T07:18:06.597Z,17.80
2023-03-06T07:20:08.981Z,17.80
2023-03-06T07:22:10.792Z,17.80
2023-03-06T07:24:12.593Z,17.80
2023-03-06T07:26:14.270Z,17.80
2023-03-06T07:28:18.549Z,17.80
2023-03-06T07:30:24.025Z,17.80
2023-03-06T07:32:25.911Z,17.80
2023-03-06T07:34:28.008Z,17.90
2023-03-06T07:36:29.814Z,17.90
2023-03-06T07:38:31.566Z,17.80
2023-03-06T07:40:33.314Z,17.80
2023-03-06T07:42:35.602Z,17.80
2023-03-06T07:44:38.183Z,17.80
2023-03-06T07:46:40.062Z,17.80
2023-03-06T07:48:42.300Z,17.80
2023-03-06T07:50:44.098Z,17.80
2023-03-06T07:52:45.902Z,17.80
2023-03-06T07:54:47.671Z,17.80
2023-03-06T07:56:52.619Z,17.90
2023-03-06T07:58:56.040Z,18.00
2023-03-06T08:01:02.808Z,17.90
2023-03-06T08:03:04.614Z,18.00
2023-03-06T08:05:07.318Z,18.00
2023-03-06T08:07:09.163Z,18.10
2023-03-06T08:09:10.982Z,18.10
2023-03-06T08:11:14.456Z,18.20
2023-03-06T08:13:16.229Z,18.30
2023-03-06T08:15:18.130Z,18.30
2023-03-06T08:17:19.935Z,18.30
2023-03-06T08:19:21.776Z,18.30
2023-03-06T08:21:24.583Z,18.30
2023-03-06T08:23:26.335Z,18.30
2023-03-06T08:25:28.103Z,18.40
2023-03-06T08:27:30.503Z,18.50
2023-03-06T08:29:32.435Z,18.50
2023-03-06T08:31:38.287Z,18.60
2023-03-06T08:33:40.365Z,18.60
2023-03-06T08:35:42.129Z,18.60
2023-03-06T08:37:43.960Z,18.60
2023-03-06T08:39:45.786Z,18.70
2023-03-06T08:41:47.580Z,18.70
2023-03-06T08:43:49.719Z,18.70
2023-03-06T08:45:55.640Z,18.70
2023-03-06T08:47:57.451Z,18.80
2023-03-06T08:50:00.590Z,18.80
2023-03-06T08:52:02.599Z,18.80
2023-03-06T08:54:08.336Z,18.80
2023-03-06T08:56:24.003Z,18.80
2023-03-06T08:58:25.778Z,18.80
2023-03-06T09:00:27.686Z,18.80
2023-03-06T09:02:29.503Z,18.80
2023-03-06T09:04:31.285Z,18.90
2023-03-06T09:06:34.795Z,18.90
2023-03-06T09:08:36.673Z,18.90
2023-03-06T09:10:38.510Z,18.90
2023-03-06T09:12:49.853Z,18.90
2023-03-06T09:14:52.607Z,18.90
2023-03-06T09:16:54.510Z,18.90
2023-03-06T09:18:56.350Z,18.80
2023-03-06T09:20:58.128Z,18.90
2023-03-06T09:22:59.905Z,18.90
2023-03-06T09:25:01.687Z,18.90
2023-03-06T09:27:03.540Z,18.90
2023-03-06T09:29:05.305Z,18.90
2023-03-06T09:31:11.355Z,19.00
2023-03-06T09:33:13.236Z,18.90
2023-03-06T09:35:15.028Z,18.90
2023-03-06T09:37:17.446Z,18.90
2023-03-06T09:39:19.256Z,18.90
2023-03-06T09:41:37.204Z,19.00
2023-03-06T09:43:44.659Z,19.00
2023-03-06T09:45:46.815Z,19.00
2023-03-06T09:47:51.634Z,19.00
2023-03-06T09:49:53.404Z,19.00
2023-03-06T09:52:07.331Z,19.00
2023-03-06T09:54:13.205Z,19.00
2023-03-06T09:56:17.705Z,19.10
2023-03-06T09:58:24.185Z,19.00
2023-03-06T10:00:38.645Z,19.00
2023-03-06T10:02:41.671Z,19.10
2023-03-06T10:04:49.489Z,19.00
2023-03-06T10:06:54.552Z,19.10
2023-03-06T10:09:00.531Z,19.10
2023-03-06T10:11:04.092Z,19.10
2023-03-06T10:13:19.200Z,19.00
2023-03-06T10:15:21.024Z,19.10
2023-03-06T10:17:23.203Z,19.10
2023-03-06T10:19:31.512Z,19.10
2023-03-06T10:21:39.019Z,19.10
2023-03-06T10:23:53.707Z,19.10
2023-03-06T10:26:03.504Z,19.10
2023-03-06T10:28:28.079Z,19.10
2023-03-06T10:30:48.714Z,19.10
2023-03-06T10:32:58.917Z,19.10
2023-03-06T10:35:01.726Z,19.10
2023-03-06T10:37:09.872Z,19.10
2023-03-06T10:39:15.949Z,19.10
2023-03-06T10:41:23.785Z,19.10
2023-03-06T10:43:25.673Z,19.10
2023-03-06T10:45:27.962Z,19.10
2023-03-06T10:47:31.553Z,19.10
2023-03-06T10:49:34.742Z,19.10
2023-03-06T10:51:36.503Z,19.10
2023-03-06T10:53:47.498Z,19.20
2023-03-06T10:55:53.774Z,19.20
2023-03-06T10:57:55.562Z,19.20
2023-03-06T10:59:57.350Z,19.10
2023-03-06T11:02:19.102Z,19.20
2023-03-06T11:04:20.862Z,19.20
2023-03-06T11:06:33.310Z,19.10
2023-03-06T11:08:35.125Z,19.20
2023-03-06T11:10:36.903Z,19.10
2023-03-06T11:12:39.752Z,19.10
2023-03-06T11:14:41.570Z,19.10
2023-03-06T11:16:47.492Z,19.10
2023-03-06T11:19:03.382Z,19.10
2023-03-06T11:21:06.848Z,19.10
2023-03-06T11:23:15.931Z,19.10
2023-03-06T11:25:18.972Z,19.10
2023-03-06T11:27:26.572Z,19.10
2023-03-06T11:29:29.403Z,19.10
2023-03-06T11:31:51.639Z,19.10
2023-03-06T11:34:07.639Z,19.10
2023-03-06T11:36:13.323Z,19.10
2023-03-06T11:38:19.106Z,19.10
2023-03-06T11:40:24.155Z,19.10
2023-03-06T11:42:32.255Z,19.10
2023-03-06T11:44:39.884Z,19.10
2023-03-06T11:46:44.133Z,19.10
2023-03-06T11:48:53.656Z,19.10
2023-03-06T11:50:59.308Z,19.10
2023-03-06T11:53:02.197Z,19.00
2023-03-06T11:55:04.108Z,19.00
2023-03-06T11:57:12.469Z,19.10
2023-03-06T11:59:32.808Z,19.00
2023-03-06T12:01:34.598Z,19.00
2023-03-06T12:03:36.349Z,19.00
2023-03-06T12:05:51.325Z,19.00
2023-03-06T12:08:08.618Z,19.00
2023-03-06T12:10:29.224Z,19.00
2023-03-06T12:12:43.137Z,19.00
2023-03-06T12:14:50.883Z,19.00
2023-03-06T12:16:59.840Z,19.00
2023-03-06T12:19:06.975Z,19.00
2023-03-06T12:21:17.114Z,19.00
2023-03-06T12:23:28.549Z,19.00
2023-03-06T12:25:41.741Z,19.00
2023-03-06T12:27:49.577Z,19.00
2023-03-06T12:29:57.203Z,19.00
2023-03-06T12:32:08.340Z,19.00
2023-03-06T12:34:28.417Z,19.00
2023-03-06T12:36:48.306Z,19.00
2023-03-06T12:39:02.108Z,19.00
2023-03-06T12:41:03.879Z,19.00
2023-03-06T12:43:05.660Z,19.00
2023-03-06T12:45:10.555Z,19.00
2023-03-06T12:47:15.191Z,19.00
2023-03-06T12:49:32.617Z,19.00
2023-03-06T12:51:34.953Z,19.00
2023-03-06T12:53:37.799Z,19.00
2023-03-06T12:55:44.726Z,19.00
2023-03-06T12:57:47.353Z,19.00
2023-03-06T12:59:49.544Z,19.00
2023-03-06T13:02:02.728Z,19.00
2023-03-06T13:04:07.675Z,19.00
2023-03-06T13:06:18.724Z,19.00
2023-03-06T13:08:20.452Z,19.00
2023-03-06T13:10:28.465Z,19.00
2023-03-06T13:12:36.235Z,19.00
2023-03-06T13:14:42.279Z,19.00
2023-03-06T13:16:51.981Z,19.00
2023-03-06T13:19:02.782Z,19.00
2023-03-06T13:21:04.918Z,19.00
2023-03-06T13:23:25.539Z,19.00
2023-03-06T13:25:30.394Z,19.00
2023-03-06T13:28:01.547Z,19.00
2023-03-06T13:30:04.739Z,19.00
2023-03-06T13:32:12.326Z,19.00
2023-03-06T13:34:37.414Z,19.00
2023-03-06T13:36:39.893Z,19.00
2023-03-06T13:38:41.672Z,19.00
2023-03-06T13:40:43.426Z,19.00
2023-03-06T13:42:45.208Z,19.00
2023-03-06T13:44:48.722Z,19.00
2023-03-06T13:47:16.588Z,19.00
2023-03-06T13:49:22.928Z,19.00
2023-03-06T13:51:26.716Z,19.00
2023-03-06T13:53:28.474Z,19.00
2023-03-06T13:55:35.951Z,19.00
2023-03-06T13:57:40.457Z,19.00
2023-03-06T14:00:08.596Z,19.00
2023-03-06T14:02:34.079Z,19.00
2023-03-06T14:04:44.703Z,19.00
2023-03-06T14:06:50.963Z,19.00
2023-03-06T14:08:52.811Z,19.00
2023-03-06T14:11:32.828Z,19.00
2023-03-06T14:13:45.455Z,19.00
2023-03-06T14:15:53.238Z,19.00
2023-03-06T14:17:55.061Z,19.00
2023-03-06T14:19:59.703Z,19.00
2023-03-06T14:22:01.842Z,19.00
2023-03-06T14:24:04.651Z,19.00
2023-03-06T14:26:11.352Z,19.10
2023-03-06T14:28:23.639Z,19.10
2023-03-06T14:30:26.373Z,19.10
2023-03-06T14:32:28.263Z,19.10
2023-03-06T14:34:31.060Z,19.10
2023-03-06T14:36:42.108Z,19.10
2023-03-06T14:38:46.023Z,19.10
2023-03-06T14:40:47.796Z,19.10
2023-03-06T14:42:49.555Z,19.10
2023-03-06T14:45:01.912Z,19.10
2023-03-06T14:47:22.397Z,19.10
2023-03-06T14:49:25.288Z,19.10
2023-03-06T14:51:27.139Z,19.10
2023-03-06T14:53:30.164Z,19.10
2023-03-06T14:55:34.407Z,19.10
2023-03-06T14:57:36.293Z,19.10
2023-03-06T14:59:40.919Z,19.10
2023-03-06T15:01:47.016Z,19.10
2023-03-06T15:03:53.055Z,19.10
2023-03-06T15:05:55.177Z,19.10
2023-03-06T15:07:59.817Z,19.10
2023-03-06T15:10:01.664Z,19.10
2023-03-06T15:12:04.547Z,19.10
2023-03-06T15:14:06.347Z,19.10
2023-03-06T15:16:22.222Z,19.10
2023-03-06T15:18:27.134Z,19.10
2023-03-06T15:20:43.506Z,19.10
2023-03-06T15:22:50.071Z,19.10
2023-03-06T15:24:52.034Z,19.10
2023-03-06T15:26:55.096Z,19.10
2023-03-06T15:29:09.434Z,19.10
2023-03-06T15:31:22.355Z,19.10
2023-03-06T15:33:25.153Z,19.10
2023-03-06T15:35:33.583Z,19.10
2023-03-06T15:37:36.433Z,19.10
2023-03-06T15:39:39.374Z,19.10
2023-03-06T15:41:41.140Z,19.10
2023-03-06T15:43:42.995Z,19.10
2023-03-06T15:45:44.816Z,19.10
2023-03-06T15:47:47.709Z,19.10
2023-03-06T15:49:49.573Z,19.10
2023-03-06T15:51:51.311Z,19.10
2023-03-06T15:53:55.102Z,19.10
2023-03-06T15:56:01.811Z,19.10
2023-03-06T15:58:03.929Z,19.10
2023-03-06T16:00:07.650Z,19.10
2023-03-06T16:02:14.747Z,19.10
2023-03-06T16:04:17.275Z,19.10
2023-03-06T16:06:25.207Z,19.10
2023-03-06T16:08:26.966Z,19.10
2023-03-06T16:10:29.734Z,19.10
2023-03-06T16:12:31.556Z,19.10
2023-03-06T16:14:33.320Z,19.10
2023-03-06T16:16:36.844Z,19.10
2023-03-06T16:18:38.643Z,19.10
2023-03-06T16:20:40.467Z,19.10
2023-03-06T16:22:42.275Z,19.10
2023-03-06T16:24:44.044Z,19.10
2023-03-06T16:26:47.430Z,19.10
2023-03-06T16:28:49.253Z,19.10
2023-03-06T16:30:51.103Z,19.10
2023-03-06T16:32:52.889Z,19.10
2023-03-06T16:34:54.685Z,19.10
2023-03-06T16:36:56.431Z,19.10
2023-03-06T16:38:58.320Z,19.10
2023-03-06T16:41:00.019Z,19.10
2023-03-06T16:43:01.755Z,19.10
2023-03-06T16:45:03.681Z,19.10
2023-03-06T16:47:05.538Z,19.10
2023-03-06T16:49:07.352Z,19.10
2023-03-06T16:51:11.167Z,19.10
2023-03-06T16:53:12.930Z,19.10
2023-03-06T16:55:14.798Z,19.10
2023-03-06T16:57:17.209Z,19.10
2023-03-06T16:59:18.972Z,19.10
2023-03-06T17:01:20.806Z,19.10
2023-03-06T17:03:22.550Z,19.10
2023-03-06T17:05:24.325Z,19.10
2023-03-06T17:07:26.079Z,19.10
2023-03-06T17:09:27.889Z,19.10
2023-03-06T17:11:29.700Z,19.10
2023-03-06T17:13:31.423Z,19.10
2023-03-06T17:15:33.262Z,19.10
2023-03-06T17:17:35.300Z,19.10
2023-03-06T17:19:37.169Z,19.10
2023-03-06T17:21:38.914Z,19.10
2023-03-06T17:23:40.679Z,19.10
2023-03-06T17:25:42.456Z,19.10
2023-03-06T17:27:44.217Z,19.10
2023-03-06T17:29:46.043Z,19.10
2023-03-06T17:31:47.784Z,19.10
2023-03-06T17:33:49.751Z,19.10
2023-03-06T17:35:57.118Z,19.10
2023-03-06T17:37:58.881Z,19.10
2023-03-06T17:40:00.633Z,19.10
2023-03-06T17:42:02.554Z,19.10
2023-03-06T17:44:04.472Z,19.10
2023-03-06T17:46:10.459Z,19.00
2023-03-06T17:48:12.239Z,19.00
2023-03-06T17:50:14.158Z,19.00
2023-03-06T17:52:15.927Z,19.00
2023-03-06T17:54:18.103Z,19.00
2023-03-06T17:56:19.856Z,19.00
2023-03-06T17:58:21.673Z,19.00
2023-03-06T18:00:23.541Z,19.00
2023-03-06T18:02:25.314Z,19.00
2023-03-06T18:04:27.486Z,19.00
2023-03-06T18:06:30.270Z,19.00
2023-03-06T18:08:32.062Z,19.00
2023-03-06T18:10:34.185Z,19.00
2023-03-06T18:12:35.981Z,19.00
2023-03-06T18:14:37.724Z,19.00
2023-03-06T18:16:39.550Z,19.00
2023-03-06T18:18:41.398Z,19.00
2023-03-06T18:20:45.142Z,19.00
2023-03-06T18:22:48.302Z,19.00
2023-03-06T18:24:50.021Z,19.00
2023-03-06T18:26:51.811Z,19.00
2023-03-06T18:28:57.525Z,19.00
2023-03-06T18:30:59.270Z,19.00
2023-03-06T18:33:01.018Z,19.00
2023-03-06T18:35:02.870Z,19.00
2023-03-06T18:37:04.616Z,19.00
2023-03-06T18:39:07.622Z,19.00
2023-03-06T18:41:09.769Z,19.00
2023-03-06T18:43:11.489Z,19.00
2023-03-06T18:45:13.488Z,19.00
2023-03-06T18:47:15.296Z,18.90
2023-03-06T18:49:17.086Z,19.00
2023-03-06T18:51:18.819Z,19.00
2023-03-06T18:53:21.007Z,18.90
2023-03-06T18:55:22.786Z,19.00
2023-03-06T18:57:24.478Z,18.90
2023-03-06T18:59:26.283Z,18.90
2023-03-06T19:01:28.119Z,18.90
2023-03-06T19:03:29.903Z,18.90
2023-03-06T19:05:31.619Z,18.90
2023-03-06T19:07:33.440Z,18.90
2023-03-06T19:09:35.236Z,19.00
2023-03-06T19:11:37.015Z,18.90
2023-03-06T19:13:38.911Z,18.90
2023-03-06T19:15:44.845Z,18.90
2023-03-06T19:17:48.517Z,18.90
2023-03-06T19:19:50.286Z,18.90
2023-03-06T19:21:52.670Z,18.90
2023-03-06T19:23:55.087Z,18.90
2023-03-06T19:26:00.292Z,18.90
2023-03-06T19:28:02.466Z,18.90
2023-03-06T19:30:05.215Z,18.90
2023-03-06T19:32:09.403Z,18.90
2023-03-06T19:34:11.280Z,18.90
2023-03-06T19:36:13.773Z,18.90
2023-03-06T19:38:15.623Z,18.90
2023-03-06T19:40:17.540Z,18.90
2023-03-06T19:42:19.343Z,18.90
2023-03-06T19:44:21.109Z,18.90
2023-03-06T19:46:23.285Z,19.00
2023-03-06T19:48:25.067Z,18.90
2023-03-06T19:50:27.444Z,18.90
2023-03-06T19:52:29.227Z,18.90
2023-03-06T19:54:32.483Z,18.90
2023-03-06T19:56:34.554Z,18.90
2023-03-06T19:58:36.312Z,18.90
2023-03-06T20:00:38.262Z,18.90
2023-03-06T20:02:40.115Z,18.90
2023-03-06T20:04:41.873Z,18.90
2023-03-06T20:06:43.646Z,18.90
2023-03-06T20:08:45.800Z,18.90
2023-03-06T20:10:47.558Z,18.90
2023-03-06T20:12:49.301Z,18.90
2023-03-06T20:14:51.043Z,18.90
2023-03-06T20:16:52.828Z,18.90
2023-03-06T20:18:54.870Z,18.90
2023-03-06T20:20:57.391Z,18.90
2023-03-06T20:22:59.298Z,18.90
2023-03-06T20:25:01.097Z,18.90
2023-03-06T20:27:02.899Z,18.90
2023-03-06T20:29:04.645Z,18.90
2023-03-06T20:31:10.282Z,18.90
2023-03-06T20:33:12.061Z,18.90
2023-03-06T20:35:13.964Z,18.90
2023-03-06T20:37:15.670Z,18.90
2023-03-06T20:39:18.532Z,18.90
2023-03-06T20:41:21.593Z,18.90
2023-03-06T20:43:23.376Z,18.90
2023-03-06T20:45:25.142Z,18.90
2023-03-06T20:47:26.977Z,18.90
2023-03-06T20:49:28.753Z,18.90
2023-03-06T20:51:34.791Z,18.90
2023-03-06T20:53:36.558Z,18.90
2023-03-06T20:55:38.329Z,18.90
2023-03-06T20:57:40.089Z,18.90
2023-03-06T20:59:41.882Z,18.90
2023-03-06T21:01:44.693Z,18.90
2023-03-06T21:03:46.641Z,18.90
2023-03-06T21:05:48.784Z,18.90
2023-03-06T21:07:52.004Z,18.90
2023-03-06T21:09:53.797Z,18.90
2023-03-06T21:11:55.575Z,18.90
2023-03-06T21:13:57.467Z,18.90
2023-03-06T21:15:59.234Z,18.90
2023-03-06T21:18:00.988Z,18.90
2023-03-06T21:20:02.769Z,18.90
2023-03-06T21:22:04.586Z,18.90
2023-03-06T21:24:06.527Z,18.90
2023-03-06T21:26:11.833Z,18.90
2023-03-06T21:28:14.448Z,18.90
2023-03-06T21:30:16.321Z,18.90
2023-03-06T21:32:18.181Z,18.90
2023-03-06T21:34:19.986Z,18.90
2023-03-06T21:36:22.342Z,18.90
2023-03-06T21:38:24.083Z,18.90
2023-03-06T21:40:25.857Z,18.90
2023-03-06T21:42:27.667Z,18.90
2023-03-06T21:44:29.427Z,18.90
2023-03-06T21:46:31.563Z,18.90
2023-03-06T21:48:33.428Z,18.90
2023-03-06T21:50:35.234Z,18.90
2023-03-06T21:52:37.069Z,18.90
2023-03-06T21:54:38.799Z,18.90
2023-03-06T21:56:40.609Z,18.90
2023-03-06T21:58:42.379Z,18.90
2023-03-06T22:00:44.175Z,18.90
2023-03-06T22:02:46.841Z,18.90
2023-03-06T22:04:49.103Z,18.90
2023-03-06T22:06:51.085Z,18.90
2023-03-06T22:08:54.587Z,18.90
2023-03-06T22:10:56.304Z,18.90
2023-03-06T22:12:58.131Z,18.90
2023-03-06T22:14:59.897Z,18.90
2023-03-06T22:17:01.917Z,18.90
2023-03-06T22:19:03.879Z,18.90
2023-03-06T22:21:06.551Z,18.90
2023-03-06T22:23:08.346Z,18.90
2023-03-06T22:25:10.290Z,18.90
2023-03-06T22:27:12.038Z,18.90
2023-03-06T22:29:13.814Z,18.90
2023-03-06T22:31:16.984Z,18.90
2023-03-06T22:33:18.902Z,18.90
2023-03-06T22:35:20.741Z,18.90
2023-03-06T22:37:22.510Z,18.90
2023-03-06T22:39:24.299Z,18.90
2023-03-06T22:41:26.179Z,18.90
2023-03-06T22:43:28.067Z,18.90
2023-03-06T22:45:29.878Z,18.90
2023-03-06T22:47:31.583Z,18.90
2023-03-06T22:49:33.386Z,18.90
2023-03-06T22:51:35.144Z,18.90
2023-03-06T22:53:37.330Z,18.90
2023-03-06T22:55:39.046Z,18.90
2023-03-06T22:57:43.186Z,18.90
2023-03-06T22:59:44.985Z,18.90
2023-03-06T23:01:46.754Z,18.90
2023-03-06T23:03:50.074Z,18.90
2023-03-06T23:05:51.822Z,18.90
2023-03-06T23:07:53.519Z,18.90
2023-03-06T23:09:55.269Z,18.90
2023-03-06T23:12:15.570Z,18.90
2023-03-06T23:14:35.844Z,18.90
2023-03-06T23:16:55.882Z,18.90
2023-03-06T23:19:16.115Z,18.90
2023-03-06T23:21:36.403Z,18.90
2023-03-06T23:23:57.010Z,18.90
2023-03-06T23:25:59.295Z,18.90
2023-03-06T23:28:01.053Z,18.90
2023-03-06T23:30:03.837Z,18.90
2023-03-06T23:32:06.019Z,18.90
2023-03-06T23:34:09.615Z,18.90
2023-03-06T23:36:12.633Z,18.90
2023-03-06T23:38:14.526Z,18.90
2023-03-06T23:40:16.364Z,18.90
2023-03-06T23:42:18.210Z,18.90
2023-03-06T23:44:20.026Z,18.90
2023-03-06T23:46:22.248Z,18.90
2023-03-06T23:48:24.394Z,18.90
2023-03-06T23:50:26.185Z,18.90
2023-03-06T23:52:28.018Z,18.90
2023-03-06T23:54:29.770Z,18.90
2023-03-06T23:56:31.463Z,18.90
2023-03-06T23:58:33.630Z,18.90
